Time;durP1;ratioP1;P1;durP2;ratioP2;P2;SDS_P1;SDS_P2;PMS_P1;PMS_P2;Temp;Humidity;BMP_temperature;BMP_pressure;BME280_temperature;BME280_humidity;BME280_pressure;Samples;Min_cycle;Max_cycle;Signal;HPM_P1;HPM_P2
2023/08/10 00:01:18;;;;;;;2.22;1.60;;;17.50;99.90;;;;;;4970633;28;20200;-65
2023/08/10 00:03:48;;;;;;;2.60;1.60;;;17.50;99.90;;;;;;4979669;28;20180;-64
2023/08/10 00:06:17;;;;;;;3.42;1.63;;;17.40;99.90;;;;;;4959135;28;20200;-65
2023/08/10 00:08:42;;;;;;;2.95;1.55;;;17.30;99.90;;;;;;4977695;28;20194;-66
2023/08/10 00:11:11;;;;;;;3.65;1.90;;;17.30;99.90;;;;;;4974152;28;20189;-64
2023/08/10 00:13:36;;;;;;;4.13;1.83;;;17.20;99.90;;;;;;4962635;28;20180;-65
2023/08/10 00:16:05;;;;;;;2.53;1.40;;;17.20;99.90;;;;;;4992780;28;20195;-65
2023/08/10 00:18:30;;;;;;;3.85;1.48;;;17.10;99.90;;;;;;4963949;28;20219;-66
2023/08/10 00:20:56;;;;;;;4.97;1.92;;;17.10;99.90;;;;;;4976272;28;20176;-65
2023/08/10 00:23:22;;;;;;;3.40;2.15;;;17.10;99.90;;;;;;4983854;28;20271;-66
2023/08/10 00:25:49;;;;;;;2.00;1.55;;;17.10;99.90;;;;;;4972492;28;20188;-65
2023/08/10 00:28:15;;;;;;;1.98;1.52;;;17.00;99.90;;;;;;4960966;28;20204;-65
2023/08/10 00:30:41;;;;;;;2.47;1.50;;;17.00;99.90;;;;;;4976278;28;20184;-66
2023/08/10 00:33:09;;;;;;;2.47;1.73;;;16.90;99.90;;;;;;4990545;28;20206;-66
2023/08/10 00:35:38;;;;;;;3.15;1.80;;;16.90;99.90;;;;;;5004483;28;20176;-64
2023/08/10 00:38:06;;;;;;;2.03;1.65;;;16.90;99.90;;;;;;4972677;28;20230;-66
2023/08/10 00:40:32;;;;;;;3.03;1.55;;;16.80;99.90;;;;;;4982459;28;20188;-65
2023/08/10 00:43:00;;;;;;;2.35;1.40;;;16.80;99.90;;;;;;4975283;28;20384;-66
2023/08/10 00:45:29;;;;;;;3.72;1.60;;;16.80;99.90;;;;;;4972861;28;20191;-64
2023/08/10 00:48:00;;;;;;;1.98;1.67;;;16.70;99.90;;;;;;4966354;28;20214;-65
2023/08/10 00:50:29;;;;;;;2.83;1.60;;;16.70;99.90;;;;;;4983279;28;20180;-65
2023/08/10 00:52:57;;;;;;;2.70;1.63;;;16.70;99.90;;;;;;4976197;28;20228;-65
2023/08/10 00:55:23;;;;;;;1.50;1.40;;;16.70;99.90;;;;;;4965831;28;20222;-65
2023/08/10 00:57:49;;;;;;;1.63;1.40;;;16.60;99.90;;;;;;4977905;28;20208;-65
2023/08/10 01:00:14;;;;;;;2.10;1.40;;;16.60;99.90;;;;;;4988580;28;20202;-65
2023/08/10 01:02:42;;;;;;;1.88;1.55;;;16.60;99.90;;;;;;4972257;28;20203;-66
2023/08/10 01:05:13;;;;;;;2.00;1.40;;;16.60;99.90;;;;;;4975595;28;20203;-66
2023/08/10 01:08:02;;;;;;;3.72;1.67;;;16.50;99.90;;;;;;4975354;28;20187;-64
2023/08/10 01:10:50;;;;;;;2.55;1.73;;;16.50;99.90;;;;;;4972276;28;20568;-64
2023/08/10 01:13:32;;;;;;;2.58;1.70;;;16.50;99.90;;;;;;4974136;28;20176;-63
2023/08/10 01:16:09;;;;;;;2.30;1.58;;;16.50;99.90;;;;;;4991701;28;20184;-66
2023/08/10 01:18:37;;;;;;;2.63;1.50;;;16.50;99.90;;;;;;4975769;28;20282;-64
2023/08/10 01:21:27;;;;;;;2.15;1.60;;;16.50;99.90;;;;;;4985417;28;20262;-64
2023/08/10 01:23:58;;;;;;;2.05;1.60;;;16.50;99.90;;;;;;4973723;28;20236;-65
2023/08/10 01:26:26;;;;;;;1.63;1.40;;;16.50;99.90;;;;;;4975199;28;20183;-65
2023/08/10 01:28:54;;;;;;;3.85;1.60;;;16.50;99.90;;;;;;4995359;28;20180;-65
2023/08/10 01:31:19;;;;;;;2.88;1.80;;;16.50;99.90;;;;;;4991050;28;20203;-65
2023/08/10 01:33:45;;;;;;;5.68;1.50;;;16.50;99.90;;;;;;4968263;28;20188;-65
2023/08/10 01:36:11;;;;;;;2.80;1.80;;;16.50;99.90;;;;;;4971018;28;20195;-65
2023/08/10 01:38:36;;;;;;;2.25;1.45;;;16.40;99.90;;;;;;4974847;28;20203;-64
2023/08/10 01:41:02;;;;;;;2.45;1.60;;;16.50;99.90;;;;;;4991772;28;20176;-64
2023/08/10 01:43:33;;;;;;;1.75;1.52;;;16.50;99.90;;;;;;4978021;28;20179;-62
2023/08/10 01:46:00;;;;;;;2.97;1.67;;;16.40;99.90;;;;;;4981396;28;20200;-69
2023/08/10 01:48:32;;;;;;;2.47;1.75;;;16.40;99.90;;;;;;4974757;28;20199;-72
2023/08/10 01:51:02;;;;;;;2.17;1.60;;;16.50;99.90;;;;;;4967026;28;20268;-72
2023/08/10 01:53:31;;;;;;;1.80;1.60;;;16.50;99.90;;;;;;4974322;28;20195;-72
2023/08/10 01:55:57;;;;;;;2.55;1.42;;;16.40;99.90;;;;;;4974534;28;20250;-69
2023/08/10 01:58:23;;;;;;;2.75;1.40;;;16.50;99.90;;;;;;4988453;28;20208;-72
2023/08/10 02:00:51;;;;;;;2.15;1.50;;;16.40;99.90;;;;;;4974813;28;20184;-72
2023/08/10 02:03:17;;;;;;;2.35;1.67;;;16.40;99.90;;;;;;4976230;28;20168;-72
2023/08/10 02:05:45;;;;;;;2.15;1.50;;;16.50;99.90;;;;;;4958353;28;20266;-72
2023/08/10 02:08:11;;;;;;;1.95;1.60;;;16.50;99.90;;;;;;4963327;28;20204;-70
2023/08/10 02:10:37;;;;;;;2.20;1.73;;;16.50;99.90;;;;;;4969229;28;20216;-71
2023/08/10 02:13:02;;;;;;;2.50;1.40;;;16.50;99.90;;;;;;4975880;28;20200;-73
2023/08/10 02:15:28;;;;;;;2.45;1.60;;;16.50;99.90;;;;;;4979560;28;20224;-72
2023/08/10 02:17:57;;;;;;;1.65;1.30;;;16.50;99.90;;;;;;4968156;28;20204;-70
2023/08/10 02:20:25;;;;;;;3.42;1.70;;;16.50;99.90;;;;;;4968381;28;20206;-73
2023/08/10 02:22:52;;;;;;;1.60;1.50;;;16.60;99.90;;;;;;4978749;28;20187;-73
2023/08/10 02:25:19;;;;;;;1.95;1.60;;;16.60;99.90;;;;;;4977395;28;20255;-73
2023/08/10 02:27:50;;;;;;;2.65;1.60;;;16.60;99.90;;;;;;4970244;28;20184;-73
2023/08/10 02:30:19;;;;;;;2.67;1.75;;;16.60;99.90;;;;;;4973668;28;20199;-72
2023/08/10 02:32:44;;;;;;;2.50;1.60;;;16.60;99.90;;;;;;4966579;28;20172;-73
2023/08/10 02:35:10;;;;;;;4.82;1.48;;;16.60;99.90;;;;;;4996023;28;20183;-72
2023/08/10 02:37:37;;;;;;;3.13;1.40;;;16.60;99.90;;;;;;4978036;28;20249;-73
2023/08/10 02:40:04;;;;;;;2.35;1.40;;;16.60;99.90;;;;;;4977976;28;20176;-72
2023/08/10 02:42:30;;;;;;;2.13;1.42;;;16.60;99.90;;;;;;4971471;28;20176;-72
2023/08/10 02:44:56;;;;;;;2.60;1.50;;;16.60;99.90;;;;;;4978096;28;20176;-70
2023/08/10 02:47:24;;;;;;;2.92;1.45;;;16.60;99.90;;;;;;4976616;28;20238;-72
2023/08/10 02:49:51;;;;;;;2.33;1.48;;;16.50;99.90;;;;;;4966111;28;20184;-68
2023/08/10 02:52:20;;;;;;;3.22;1.42;;;16.50;99.90;;;;;;4979647;28;20199;-74
2023/08/10 02:54:45;;;;;;;1.83;1.30;;;16.50;99.90;;;;;;4980407;28;20197;-73
2023/08/10 02:57:14;;;;;;;2.00;1.25;;;16.40;99.90;;;;;;4961725;28;20176;-72
2023/08/10 02:59:39;;;;;;;2.17;1.38;;;16.40;99.90;;;;;;4972736;28;20200;-72
2023/08/10 03:02:05;;;;;;;1.80;1.40;;;16.40;99.90;;;;;;4976159;28;20358;-71
2023/08/10 03:04:31;;;;;;;3.70;1.70;;;16.30;99.90;;;;;;4977888;28;20392;-73
2023/08/10 03:06:59;;;;;;;1.95;1.48;;;16.30;99.90;;;;;;4968069;28;20180;-72
2023/08/10 03:09:25;;;;;;;2.15;1.52;;;16.30;99.90;;;;;;4968382;28;20259;-73
2023/08/10 03:11:50;;;;;;;1.80;1.40;;;16.30;99.90;;;;;;4974036;28;20275;-72
2023/08/10 03:14:18;;;;;;;2.90;1.50;;;16.20;99.90;;;;;;4973959;28;20207;-73
2023/08/10 03:16:49;;;;;;;2.05;1.50;;;16.20;99.90;;;;;;4977220;28;20199;-68
2023/08/10 03:19:15;;;;;;;1.83;1.55;;;16.20;99.90;;;;;;5007965;28;20223;-68
2023/08/10 03:21:40;;;;;;;2.47;1.60;;;16.20;99.90;;;;;;4979566;28;20195;-72
2023/08/10 03:24:06;;;;;;;2.30;1.50;;;16.10;99.90;;;;;;4968066;28;20197;-70
2023/08/10 03:26:32;;;;;;;4.15;1.88;;;16.10;99.90;;;;;;4966269;28;20180;-73
2023/08/10 03:28:57;;;;;;;2.25;1.50;;;16.10;99.90;;;;;;4977766;28;20190;-73
2023/08/10 03:31:23;;;;;;;2.13;1.60;;;16.00;99.90;;;;;;4974955;28;20204;-74
2023/08/10 03:33:51;;;;;;;1.83;1.30;;;16.00;99.90;;;;;;4977070;28;20253;-71
2023/08/10 03:36:19;;;;;;;1.80;1.33;;;15.90;99.90;;;;;;4977344;28;20199;-73
2023/08/10 03:38:45;;;;;;;1.73;1.52;;;15.90;99.90;;;;;;4979473;28;20296;-73
2023/08/10 03:41:10;;;;;;;2.17;1.50;;;15.90;99.90;;;;;;4963424;28;20164;-69
2023/08/10 03:43:36;;;;;;;2.15;1.30;;;15.80;99.90;;;;;;4980568;28;20266;-73
2023/08/10 03:46:06;;;;;;;1.80;1.48;;;15.80;99.90;;;;;;4973836;28;20226;-73
2023/08/10 03:48:34;;;;;;;1.70;1.42;;;15.80;99.90;;;;;;4977184;28;20188;-73
2023/08/10 03:51:01;;;;;;;1.75;1.30;;;15.70;99.90;;;;;;4976110;28;20172;-73
2023/08/10 03:53:28;;;;;;;4.93;1.73;;;15.70;99.90;;;;;;4976995;28;20176;-73
2023/08/10 03:55:57;;;;;;;2.20;1.55;;;15.70;99.90;;;;;;4975073;28;20180;-73
2023/08/10 03:58:23;;;;;;;3.13;1.40;;;15.60;99.90;;;;;;4975751;28;20256;-71
2023/08/10 04:00:49;;;;;;;4.80;2.08;;;15.60;99.90;;;;;;4974294;28;20185;-73
2023/08/10 04:03:15;;;;;;;4.75;2.10;;;15.60;99.90;;;;;;4971368;28;20230;-73
2023/08/10 04:05:41;;;;;;;2.10;1.60;;;15.50;99.90;;;;;;4975351;28;20206;-71
2023/08/10 04:08:08;;;;;;;2.83;1.63;;;15.50;99.90;;;;;;4976466;28;20180;-73
2023/08/10 04:10:37;;;;;;;2.45;1.70;;;15.50;99.90;;;;;;4978648;28;20185;-74
2023/08/10 04:13:05;;;;;;;3.88;1.60;;;15.50;99.90;;;;;;4974537;28;20203;-73
2023/08/10 04:15:31;;;;;;;1.70;1.55;;;15.40;99.90;;;;;;4993121;28;20191;-74
2023/08/10 04:17:59;;;;;;;2.25;1.75;;;15.40;99.90;;;;;;4962245;28;20215;-71
2023/08/10 04:20:25;;;;;;;3.75;1.40;;;15.40;99.90;;;;;;4975187;28;20204;-72
2023/08/10 04:22:54;;;;;;;2.95;1.67;;;15.40;99.90;;;;;;4976495;28;20180;-72
2023/08/10 04:25:20;;;;;;;1.85;1.50;;;15.40;99.90;;;;;;4989529;28;20323;-74
2023/08/10 04:27:46;;;;;;;3.47;1.75;;;15.40;99.90;;;;;;4976638;28;20292;-74
2023/08/10 04:30:14;;;;;;;2.47;1.92;;;15.40;99.90;;;;;;4975781;28;20270;-74
2023/08/10 04:32:42;;;;;;;2.67;1.85;;;15.30;99.90;;;;;;4976257;28;20286;-73
2023/08/10 04:35:08;;;;;;;2.35;1.52;;;15.30;99.90;;;;;;4992157;28;20224;-73
2023/08/10 04:37:34;;;;;;;2.33;1.60;;;15.30;99.90;;;;;;4975355;28;20254;-71
2023/08/10 04:39:59;;;;;;;3.25;1.48;;;15.30;99.90;;;;;;4966510;28;20199;-73
2023/08/10 04:42:27;;;;;;;3.70;1.83;;;15.40;99.90;;;;;;4992010;28;20183;-72
2023/08/10 04:44:57;;;;;;;4.22;1.67;;;15.40;99.90;;;;;;4968441;28;20184;-73
2023/08/10 04:47:23;;;;;;;2.72;1.80;;;15.40;99.90;;;;;;4971254;28;20176;-72
2023/08/10 04:49:51;;;;;;;1.90;1.48;;;15.40;99.90;;;;;;4978621;28;20203;-69
2023/08/10 04:52:18;;;;;;;2.38;1.70;;;15.40;99.90;;;;;;4976003;28;20184;-72
2023/08/10 04:54:44;;;;;;;1.73;1.50;;;15.40;99.90;;;;;;4981491;28;20379;-72
2023/08/10 04:57:12;;;;;;;4.78;1.70;;;15.50;99.90;;;;;;4974986;28;20186;-71
2023/08/10 04:59:38;;;;;;;1.95;1.48;;;15.40;99.90;;;;;;4991315;28;20211;-70
2023/08/10 05:02:04;;;;;;;3.33;1.60;;;15.50;99.90;;;;;;4971389;28;20220;-71
2023/08/10 05:04:30;;;;;;;3.08;1.63;;;15.50;99.90;;;;;;4964922;28;20167;-68
2023/08/10 05:06:56;;;;;;;1.80;1.40;;;15.60;99.90;;;;;;4977614;28;20212;-73
2023/08/10 05:09:21;;;;;;;2.38;1.50;;;15.60;99.90;;;;;;4973563;28;20256;-73
2023/08/10 05:11:47;;;;;;;2.30;1.58;;;15.60;99.90;;;;;;4991523;28;20176;-71
2023/08/10 05:14:13;;;;;;;3.03;1.25;;;15.70;99.90;;;;;;4968997;28;20215;-72
2023/08/10 05:16:39;;;;;;;3.30;1.40;;;15.70;99.90;;;;;;4975444;28;20208;-74
2023/08/10 05:19:04;;;;;;;4.05;1.45;;;15.80;99.90;;;;;;4972252;28;20204;-70
2023/08/10 05:21:30;;;;;;;3.17;1.70;;;15.80;99.90;;;;;;4973393;28;20187;-74
2023/08/10 05:23:55;;;;;;;3.42;1.67;;;15.90;99.90;;;;;;4975228;28;20274;-69
2023/08/10 05:26:21;;;;;;;3.42;1.65;;;16.00;99.90;;;;;;4975431;28;20195;-72
2023/08/10 05:28:49;;;;;;;1.95;1.30;;;16.10;99.90;;;;;;4975667;28;20184;-73
2023/08/10 05:31:19;;;;;;;2.65;1.38;;;16.10;99.90;;;;;;4975103;28;20253;-73
2023/08/10 05:33:45;;;;;;;2.45;1.50;;;16.20;99.90;;;;;;4991147;28;20270;-74
2023/08/10 05:36:10;;;;;;;3.63;1.90;;;16.20;99.90;;;;;;4970432;28;20210;-74
2023/08/10 05:38:38;;;;;;;3.53;1.92;;;16.20;99.90;;;;;;5000733;28;20204;-73
2023/08/10 05:41:08;;;;;;;5.43;1.88;;;16.20;99.90;;;;;;4977181;28;20188;-74
2023/08/10 05:43:34;;;;;;;3.47;1.58;;;16.30;99.90;;;;;;4974620;28;20169;-73
2023/08/10 05:45:59;;;;;;;2.75;1.48;;;16.30;99.90;;;;;;4975194;28;20187;-72
2023/08/10 05:48:25;;;;;;;2.25;1.60;;;16.30;99.90;;;;;;4983258;28;20253;-73
2023/08/10 05:50:51;;;;;;;2.30;1.67;;;16.30;99.90;;;;;;4991596;28;20207;-70
2023/08/10 05:53:16;;;;;;;4.10;1.70;;;16.40;99.90;;;;;;4971206;28;20216;-74
2023/08/10 05:55:42;;;;;;;2.33;1.50;;;16.40;99.90;;;;;;4965058;28;20183;-72
2023/08/10 05:58:08;;;;;;;2.22;1.70;;;16.40;99.90;;;;;;4956856;28;20236;-74
2023/08/10 06:00:36;;;;;;;2.40;1.63;;;16.50;99.90;;;;;;4981182;28;20192;-72
2023/08/10 06:03:02;;;;;;;3.25;1.60;;;16.50;99.90;;;;;;4975412;28;20176;-73
2023/08/10 06:05:31;;;;;;;2.00;1.60;;;16.60;99.90;;;;;;4974513;28;20183;-73
2023/08/10 06:07:57;;;;;;;2.67;1.70;;;16.70;99.90;;;;;;4974713;28;20168;-73
2023/08/10 06:10:23;;;;;;;3.05;1.70;;;16.70;99.90;;;;;;4975191;28;20263;-74
2023/08/10 06:12:49;;;;;;;2.10;1.42;;;16.80;99.90;;;;;;4971212;28;20576;-74
2023/08/10 06:15:15;;;;;;;2.75;1.67;;;16.80;99.90;;;;;;4971546;28;20242;-71
2023/08/10 06:17:41;;;;;;;2.55;1.60;;;16.80;99.90;;;;;;4974294;28;20172;-74
2023/08/10 06:20:13;;;;;;;2.25;1.50;;;16.90;99.90;;;;;;4974881;28;20202;-72
2023/08/10 06:22:40;;;;;;;2.63;1.67;;;16.90;99.90;;;;;;4974719;28;20437;-75
2023/08/10 06:25:09;;;;;;;2.17;1.50;;;16.90;99.90;;;;;;4991172;28;20250;-73
2023/08/10 06:27:40;;;;;;;2.35;1.52;;;16.90;99.90;;;;;;4972389;28;20190;-73
2023/08/10 06:30:08;;;;;;;2.58;1.30;;;16.90;99.90;;;;;;4983188;28;20188;-72
2023/08/10 06:32:35;;;;;;;2.72;1.83;;;16.90;99.90;;;;;;4974999;28;20287;-74
2023/08/10 06:35:03;;;;;;;2.13;1.48;;;16.80;99.90;;;;;;4989984;28;20199;-73
2023/08/10 06:37:29;;;;;;;2.92;1.58;;;16.80;99.90;;;;;;4974550;28;20184;-72
2023/08/10 06:39:55;;;;;;;2.95;1.50;;;16.80;99.90;;;;;;5000508;28;20311;-71
2023/08/10 06:42:20;;;;;;;2.72;1.80;;;16.90;99.90;;;;;;4974490;28;20168;-73
2023/08/10 06:44:46;;;;;;;3.53;1.52;;;16.90;99.90;;;;;;4970908;28;20193;-75
2023/08/10 06:47:12;;;;;;;3.05;1.63;;;16.90;99.90;;;;;;5005306;23;20184;-71
2023/08/10 06:49:38;;;;;;;2.80;1.88;;;16.80;99.90;;;;;;4990000;28;20215;-75
2023/08/10 06:52:03;;;;;;;2.60;1.80;;;16.90;99.90;;;;;;4974910;28;20183;-74
2023/08/10 06:54:32;;;;;;;6.60;1.90;;;16.90;99.90;;;;;;4973789;28;20175;-70
2023/08/10 06:57:00;;;;;;;3.55;2.08;;;16.90;99.90;;;;;;4978547;28;20276;-73
2023/08/10 06:59:26;;;;;;;2.70;1.90;;;16.90;99.90;;;;;;4991415;28;20215;-74
2023/08/10 07:01:52;;;;;;;4.30;2.00;;;16.90;99.90;;;;;;4994453;28;20250;-72
2023/08/10 07:04:22;;;;;;;4.15;2.20;;;17.00;99.90;;;;;;4994125;28;20199;-74
2023/08/10 07:06:48;;;;;;;3.63;2.17;;;17.00;99.90;;;;;;4993688;28;20194;-70
2023/08/10 07:09:14;;;;;;;4.10;2.20;;;17.10;99.90;;;;;;4978484;28;20258;-73
2023/08/10 07:11:39;;;;;;;4.45;2.38;;;17.10;99.90;;;;;;4975767;28;20181;-73
2023/08/10 07:14:07;;;;;;;4.85;2.40;;;17.10;99.90;;;;;;4977869;28;20200;-74
2023/08/10 07:16:35;;;;;;;3.45;2.38;;;17.10;99.90;;;;;;4978269;28;20172;-74
2023/08/10 07:19:01;;;;;;;3.65;2.45;;;17.20;99.90;;;;;;4977981;28;20234;-74
2023/08/10 07:21:26;;;;;;;3.40;2.33;;;17.20;99.90;;;;;;4974955;28;20212;-73
2023/08/10 07:23:52;;;;;;;3.15;2.25;;;17.20;99.90;;;;;;4993183;28;20180;-73
2023/08/10 07:26:21;;;;;;;4.45;2.28;;;17.30;99.90;;;;;;4986260;28;20172;-74
2023/08/10 07:28:48;;;;;;;3.85;2.53;;;17.30;99.90;;;;;;4993181;28;20215;-73
2023/08/10 07:31:16;;;;;;;4.13;2.60;;;17.30;99.90;;;;;;4984733;28;20188;-74
2023/08/10 07:33:45;;;;;;;2.65;2.35;;;17.40;99.90;;;;;;4990728;28;20184;-74
2023/08/10 07:36:11;;;;;;;5.22;2.47;;;17.50;99.90;;;;;;4993664;28;20214;-74
2023/08/10 07:38:41;;;;;;;3.67;2.30;;;17.50;99.90;;;;;;4973394;28;20202;-74
2023/08/10 07:41:07;;;;;;;3.53;2.30;;;17.60;99.90;;;;;;5001111;28;20207;-73
2023/08/10 07:43:32;;;;;;;5.60;1.98;;;17.60;99.90;;;;;;4977892;28;20219;-71
2023/08/10 07:45:58;;;;;;;4.13;2.30;;;17.70;99.90;;;;;;4975952;28;20259;-74
2023/08/10 07:48:26;;;;;;;4.13;2.10;;;17.70;99.90;;;;;;4973943;28;20196;-71
2023/08/10 07:50:54;;;;;;;2.65;1.63;;;17.80;99.90;;;;;;4982125;28;20176;-74
2023/08/10 07:53:20;;;;;;;2.90;1.80;;;17.90;99.90;;;;;;4977503;28;20196;-73
2023/08/10 07:55:46;;;;;;;3.03;1.70;;;17.90;99.90;;;;;;4974538;28;20194;-74
2023/08/10 07:58:14;;;;;;;1.67;1.48;;;18.00;99.90;;;;;;4973958;28;20205;-71
2023/08/10 08:00:41;;;;;;;2.95;1.50;;;18.00;99.90;;;;;;4976553;28;20278;-74
2023/08/10 08:03:09;;;;;;;2.67;1.30;;;18.10;99.90;;;;;;4973422;28;20255;-74
2023/08/10 08:05:37;;;;;;;2.10;1.50;;;18.20;99.90;;;;;;4974483;28;20205;-74
2023/08/10 08:08:08;;;;;;;2.65;1.40;;;18.20;99.90;;;;;;4992300;28;20184;-72
2023/08/10 08:10:34;;;;;;;1.75;1.33;;;18.30;99.90;;;;;;5008513;28;20172;-73
2023/08/10 08:13:03;;;;;;;3.95;1.70;;;18.40;99.90;;;;;;4991344;28;20219;-75
2023/08/10 08:15:29;;;;;;;3.88;1.23;;;18.40;99.90;;;;;;4990226;28;20235;-75
2023/08/10 08:18:34;;;;;;;2.30;1.30;;;18.50;99.90;;;;;;4988566;28;20177;-74
2023/08/10 08:21:04;;;;;;;2.70;1.20;;;18.50;99.90;;;;;;4961958;28;20187;-75
2023/08/10 08:23:34;;;;;;;3.22;1.42;;;18.50;99.90;;;;;;4992661;28;20204;-75
2023/08/10 08:26:03;;;;;;;1.98;1.30;;;18.60;99.90;;;;;;4976830;28;20172;-74
2023/08/10 08:28:31;;;;;;;3.03;1.40;;;18.60;99.90;;;;;;4976664;28;20215;-74
2023/08/10 08:30:56;;;;;;;2.45;1.48;;;18.70;99.90;;;;;;4959846;28;20338;-73
2023/08/10 08:33:22;;;;;;;4.45;1.17;;;18.80;99.90;;;;;;4973173;28;20200;-73
2023/08/10 08:35:48;;;;;;;2.45;1.10;;;18.90;99.90;;;;;;4976634;28;20168;-74
2023/08/10 08:38:14;;;;;;;2.45;1.27;;;18.90;99.90;;;;;;4991938;28;20216;-73
2023/08/10 08:40:40;;;;;;;1.60;1.00;;;19.00;99.90;;;;;;4976850;28;20180;-72
2023/08/10 08:43:06;;;;;;;2.35;1.15;;;19.10;99.90;;;;;;4975600;28;20183;-73
2023/08/10 08:45:32;;;;;;;1.42;1.00;;;19.20;99.90;;;;;;4976406;28;20199;-74
2023/08/10 08:47:59;;;;;;;2.08;1.10;;;19.20;99.90;;;;;;4992296;28;20192;-73
2023/08/10 08:50:28;;;;;;;1.33;0.98;;;19.30;99.90;;;;;;4992481;28;20187;-73
2023/08/10 08:52:55;;;;;;;2.17;1.10;;;19.30;99.90;;;;;;4976348;28;20183;-75
2023/08/10 08:55:21;;;;;;;4.03;1.20;;;19.40;99.90;;;;;;4968790;28;20258;-75
2023/08/10 08:57:47;;;;;;;2.65;1.40;;;19.50;99.90;;;;;;4977147;28;20184;-74
2023/08/10 09:00:16;;;;;;;2.25;1.20;;;19.50;99.90;;;;;;4975727;28;20190;-76
2023/08/10 09:02:42;;;;;;;2.00;1.00;;;19.60;99.90;;;;;;4989094;28;20240;-74
2023/08/10 09:05:08;;;;;;;1.95;1.20;;;19.70;99.90;;;;;;4988830;28;20203;-75
2023/08/10 09:07:34;;;;;;;1.35;1.00;;;19.70;99.90;;;;;;4975735;28;20182;-75
2023/08/10 09:10:00;;;;;;;2.17;1.10;;;19.70;99.90;;;;;;4970378;28;20176;-76
2023/08/10 09:12:49;;;;;;;1.88;1.00;;;19.80;99.90;;;;;;4987385;28;20172;-72
2023/08/10 09:15:19;;;;;;;3.70;1.20;;;19.80;99.90;;;;;;4986015;28;20215;-69
2023/08/10 09:17:52;;;;;;;3.47;1.05;;;19.90;99.90;;;;;;4984374;28;20184;-73
2023/08/10 09:20:25;;;;;;;3.83;1.23;;;19.90;99.90;;;;;;4986861;28;20172;-70
2023/08/10 09:22:52;;;;;;;2.30;1.13;;;19.90;99.90;;;;;;4974707;28;20196;-75
2023/08/10 09:25:22;;;;;;;2.45;1.20;;;20.00;99.90;;;;;;4975410;28;20207;-71
2023/08/10 09:27:49;;;;;;;1.50;1.05;;;20.10;99.90;;;;;;4984230;28;20168;-74
2023/08/10 09:30:16;;;;;;;1.67;1.00;;;20.20;99.90;;;;;;4956439;28;20217;-73
2023/08/10 09:32:42;;;;;;;2.00;1.10;;;20.30;99.90;;;;;;4968206;28;20207;-73
2023/08/10 09:35:15;;;;;;;1.42;1.10;;;20.40;99.90;;;;;;4991683;28;20203;-75
2023/08/10 09:37:43;;;;;;;2.55;1.10;;;20.40;99.90;;;;;;4988451;28;20192;-73
2023/08/10 09:40:15;;;;;;;2.28;1.17;;;20.50;99.90;;;;;;4975080;28;20208;-74
2023/08/10 09:42:41;;;;;;;2.22;0.90;;;20.60;99.90;;;;;;4975233;28;20188;-74
2023/08/10 09:45:10;;;;;;;2.78;1.00;;;20.70;99.90;;;;;;4991387;28;20258;-75
2023/08/10 09:47:38;;;;;;;1.17;0.90;;;20.80;99.90;;;;;;4975530;28;20184;-75
2023/08/10 09:50:09;;;;;;;1.42;0.90;;;20.90;99.90;;;;;;4987983;28;20227;-75
2023/08/10 09:52:36;;;;;;;2.08;1.05;;;21.00;99.90;;;;;;4976677;28;20184;-74
2023/08/10 09:55:06;;;;;;;2.30;0.98;;;21.10;99.90;;;;;;4975652;28;20518;-63
2023/08/10 09:57:39;;;;;;;1.73;1.20;;;21.20;99.90;;;;;;4991405;28;20176;-63
2023/08/10 10:00:16;;;;;;;2.15;0.93;;;21.30;99.90;;;;;;4970018;28;20216;-64
2023/08/10 10:02:44;;;;;;;1.17;0.77;;;21.40;99.90;;;;;;4970625;28;20199;-63
2023/08/10 10:05:14;;;;;;;2.55;0.88;;;21.40;99.90;;;;;;4971117;28;20216;-63
2023/08/10 10:07:50;;;;;;;1.50;1.00;;;21.50;99.90;;;;;;4979025;28;20427;-63
2023/08/10 10:10:16;;;;;;;2.35;1.17;;;21.60;99.90;;;;;;4970206;28;20172;-64
2023/08/10 10:12:45;;;;;;;2.78;0.75;;;21.70;99.90;;;;;;4986608;28;20363;-64
2023/08/10 10:15:14;;;;;;;2.85;1.17;;;21.80;99.90;;;;;;4972014;28;20171;-64
2023/08/10 10:17:41;;;;;;;1.15;0.60;;;21.90;99.90;;;;;;4975718;28;20179;-63
2023/08/10 10:20:11;;;;;;;2.53;1.10;;;21.90;99.90;;;;;;4972099;28;20204;-64
2023/08/10 10:22:37;;;;;;;1.10;0.90;;;22.00;99.90;;;;;;4975081;28;20176;-63
2023/08/10 10:25:12;;;;;;;1.55;0.98;;;22.20;99.90;;;;;;4963378;28;20432;-64
2023/08/10 10:27:43;;;;;;;3.25;1.00;;;22.60;99.90;;;;;;4991567;28;20167;-64
2023/08/10 10:30:16;;;;;;;1.77;1.05;;;23.00;99.90;;;;;;4975375;28;20195;-64
2023/08/10 10:32:50;;;;;;;2.03;1.35;;;23.50;99.90;;;;;;4966541;28;20191;-64
2023/08/10 10:35:31;;;;;;;6.65;3.17;;;24.00;99.90;;;;;;4993699;28;20183;-64
2023/08/10 10:38:00;;;;;;;7.15;4.35;;;24.40;99.90;;;;;;4978804;28;20163;-64
2023/08/10 10:40:27;;;;;;;5.03;2.55;;;24.80;99.90;;;;;;4970922;28;20194;-63
2023/08/10 10:43:07;;;;;;;4.57;1.80;;;25.20;99.90;;;;;;4967337;28;20187;-65
2023/08/10 10:45:43;;;;;;;2.97;1.40;;;25.40;99.90;;;;;;4964815;28;20171;-64
2023/08/10 10:48:13;;;;;;;1.80;1.38;;;25.60;99.90;;;;;;4991888;28;20195;-64
2023/08/10 10:50:38;;;;;;;2.70;1.20;;;25.80;99.90;;;;;;4994684;28;20168;-65
2023/08/10 10:53:05;;;;;;;1.77;1.10;;;26.00;99.90;;;;;;4978068;28;20273;-64
2023/08/10 10:55:33;;;;;;;2.30;1.20;;;26.20;99.90;;;;;;4971480;28;20278;-63
2023/08/10 10:58:06;;;;;;;1.33;1.20;;;26.40;99.90;;;;;;4977619;28;20200;-64
2023/08/10 11:00:36;;;;;;;1.98;1.48;;;26.60;99.90;;;;;;4977011;28;20267;-64
2023/08/10 11:03:04;;;;;;;2.08;1.25;;;26.80;99.90;;;;;;4971026;28;20183;-64
2023/08/10 11:05:30;;;;;;;2.30;1.60;;;27.00;99.90;;;;;;4977898;28;20172;-64
2023/08/10 11:07:55;;;;;;;2.70;1.65;;;27.10;99.90;;;;;;4994530;28;20337;-64
2023/08/10 11:10:24;;;;;;;2.38;1.40;;;27.10;99.90;;;;;;4977002;28;20168;-65
2023/08/10 11:12:50;;;;;;;2.58;1.30;;;27.20;99.90;;;;;;4978420;28;20176;-65
2023/08/10 11:15:17;;;;;;;1.65;1.38;;;27.20;99.90;;;;;;4985927;28;20180;-65
2023/08/10 11:17:50;;;;;;;1.77;1.38;;;27.20;99.90;;;;;;4977581;28;20196;-65
2023/08/10 11:20:17;;;;;;;2.22;1.40;;;27.30;99.90;;;;;;4993686;28;20203;-65
2023/08/10 11:22:45;;;;;;;1.60;1.40;;;27.40;99.90;;;;;;4976358;28;20383;-64
2023/08/10 11:25:12;;;;;;;3.08;1.80;;;27.50;99.90;;;;;;4984866;28;20235;-65
2023/08/10 11:27:42;;;;;;;2.22;1.70;;;27.50;99.90;;;;;;4981193;28;20203;-65
2023/08/10 11:30:14;;;;;;;2.45;1.98;;;27.60;99.90;;;;;;4993516;28;20176;-65
2023/08/10 11:32:41;;;;;;;2.67;1.80;;;27.60;99.90;;;;;;4992687;28;20176;-65
2023/08/10 11:35:10;;;;;;;2.42;1.40;;;27.60;99.90;;;;;;4977483;28;20318;-64
2023/08/10 11:37:41;;;;;;;1.92;1.23;;;27.60;99.90;;;;;;4977705;28;20187;-65
2023/08/10 11:40:19;;;;;;;2.65;1.35;;;27.70;99.90;;;;;;4977947;28;20278;-64
2023/08/10 11:42:49;;;;;;;2.03;1.40;;;27.70;99.90;;;;;;4989337;28;20182;-67
2023/08/10 11:45:27;;;;;;;1.95;1.40;;;27.80;99.90;;;;;;4960116;28;20262;-66
2023/08/10 11:47:55;;;;;;;3.45;1.50;;;27.90;99.90;;;;;;4965630;28;20218;-64
2023/08/10 11:50:21;;;;;;;1.60;1.38;;;28.00;99.90;;;;;;4993831;28;20190;-64
2023/08/10 11:52:52;;;;;;;1.88;1.40;;;28.00;99.90;;;;;;4993149;28;20208;-64
2023/08/10 11:55:27;;;;;;;1.90;1.40;;;28.10;99.90;;;;;;4990259;28;20179;-65
2023/08/10 11:58:00;;;;;;;3.25;1.50;;;28.10;99.90;;;;;;4976637;28;20251;-64
2023/08/10 12:00:33;;;;;;;1.90;1.40;;;28.10;99.90;;;;;;4967581;28;20270;-64
2023/08/10 12:03:25;;;;;;;2.33;1.45;;;28.10;99.90;;;;;;4977632;28;20172;-66
2023/08/10 12:05:53;;;;;;;2.05;1.30;;;28.20;99.90;;;;;;4970456;28;20211;-66
2023/08/10 12:08:29;;;;;;;1.77;1.35;;;28.20;99.90;;;;;;4977239;28;20263;-66
2023/08/10 12:11:06;;;;;;;3.17;1.60;;;28.30;99.90;;;;;;4993865;28;20171;-64
2023/08/10 12:13:54;;;;;;;2.33;1.50;;;28.40;99.90;;;;;;4976448;28;20347;-65
2023/08/10 12:16:20;;;;;;;2.78;1.38;;;28.40;99.90;;;;;;4977236;28;20226;-65
2023/08/10 12:18:46;;;;;;;2.10;1.40;;;28.40;99.90;;;;;;4973390;28;20295;-65
2023/08/10 12:21:12;;;;;;;2.30;1.15;;;28.40;99.90;;;;;;4973777;28;20187;-67
2023/08/10 12:23:38;;;;;;;2.45;1.20;;;28.50;99.90;;;;;;4976454;28;20212;-65
2023/08/10 12:26:11;;;;;;;2.80;1.45;;;28.50;99.90;;;;;;4976991;28;20216;-64
2023/08/10 12:28:39;;;;;;;3.00;1.65;;;28.50;99.90;;;;;;4973664;28;20259;-65
2023/08/10 12:31:08;;;;;;;2.72;1.38;;;28.60;99.90;;;;;;4974776;28;20200;-65
2023/08/10 12:33:39;;;;;;;3.30;1.50;;;28.70;99.90;;;;;;4977190;28;20180;-65
2023/08/10 12:36:08;;;;;;;3.17;1.40;;;28.70;99.90;;;;;;4962414;28;20180;-65
2023/08/10 12:38:33;;;;;;;2.53;1.77;;;28.70;99.90;;;;;;4973803;28;20276;-65
2023/08/10 12:40:59;;;;;;;1.95;1.50;;;28.80;99.90;;;;;;4987690;28;20259;-65
2023/08/10 12:43:25;;;;;;;2.22;1.40;;;28.80;99.90;;;;;;4976647;28;20172;-65
2023/08/10 12:45:51;;;;;;;1.95;1.30;;;28.80;99.90;;;;;;4976884;28;20206;-65
2023/08/10 12:48:18;;;;;;;1.50;1.10;;;28.80;99.90;;;;;;4990904;28;20210;-65
2023/08/10 12:50:44;;;;;;;3.60;1.30;;;28.80;99.90;;;;;;4992874;28;20186;-65
2023/08/10 12:53:10;;;;;;;3.35;1.50;;;28.90;99.90;;;;;;4991562;28;20305;-65